Columbus, Ohio
Traffic Map
Current Weather Conditions
Columbus, Ohio
Broken Clouds
Broken Clouds
22°
Feels Like: 22°
Wind Chill: 22° Ceiling: 25000
Heat Index: 22° Visibility: 10mi
Dew Point: 14° Wind: 5mph
Humidity: 59% Direction: 60° (ENE)
Pressure: 30in Gusts: 0mph
Raw Report DataKCMH 010251Z 06004KT 10SM BKN250 22/14 A3000 RMK AO2 SLP151 T02220139 53013
Traffic Incident Summary
Active as of:
Severity:
Category:
InformationThere was an issue retrieving the traffic information for this location. Please try a different location or try again shortly.
Advertisements
Track Severe Weather on mobile